sensor_id;sensor_type;location;lat;lon;timestamp;pressure;altitude;pressure_sealevel;temperature;humidity
79465;BME280;68932;47.410;8.232;2023-05-18T00:00:06;97176.89;;;8.84;61.51
79465;BME280;68932;47.410;8.232;2023-05-18T00:02:35;97171.39;;;8.83;61.63
79465;BME280;68932;47.410;8.232;2023-05-18T00:05:04;97165.59;;;8.80;61.63
79465;BME280;68932;47.410;8.232;2023-05-18T00:07:32;97163.33;;;8.76;61.80
79465;BME280;68932;47.410;8.232;2023-05-18T00:10:01;97159.46;;;8.73;61.70
79465;BME280;68932;47.410;8.232;2023-05-18T00:12:29;97155.64;;;8.70;61.97
79465;BME280;68932;47.410;8.232;2023-05-18T00:14:57;97154.73;;;8.68;61.94
79465;BME280;68932;47.410;8.232;2023-05-18T00:17:26;97149.80;;;8.65;62.20
79465;BME280;68932;47.410;8.232;2023-05-18T00:19:54;97146.98;;;8.62;62.25
79465;BME280;68932;47.410;8.232;2023-05-18T00:22:22;97144.29;;;8.60;62.30
79465;BME280;68932;47.410;8.232;2023-05-18T00:24:50;97144.17;;;8.59;62.45
79465;BME280;68932;47.410;8.232;2023-05-18T00:27:19;97141.21;;;8.59;62.39
79465;BME280;68932;47.410;8.232;2023-05-18T00:29:47;97140.50;;;8.59;62.28
79465;BME280;68932;47.410;8.232;2023-05-18T00:32:16;97137.98;;;8.61;62.48
79465;BME280;68932;47.410;8.232;2023-05-18T00:34:44;97136.81;;;8.63;62.46
79465;BME280;68932;47.410;8.232;2023-05-18T00:37:12;97132.48;;;8.63;62.39
79465;BME280;68932;47.410;8.232;2023-05-18T00:39:40;97138.28;;;8.62;62.46
79465;BME280;68932;47.410;8.232;2023-05-18T00:42:09;97135.37;;;8.61;62.47
79465;BME280;68932;47.410;8.232;2023-05-18T00:50:43;97131.65;;;8.52;62.76
79465;BME280;68932;47.410;8.232;2023-05-18T00:53:11;97127.27;;;8.49;62.89
79465;BME280;68932;47.410;8.232;2023-05-18T00:55:40;97128.95;;;8.47;62.86
79465;BME280;68932;47.410;8.232;2023-05-18T00:58:08;97125.70;;;8.46;62.98
79465;BME280;68932;47.410;8.232;2023-05-18T01:00:37;97121.74;;;8.45;63.08
79465;BME280;68932;47.410;8.232;2023-05-18T01:03:05;97121.01;;;8.43;63.16
79465;BME280;68932;47.410;8.232;2023-05-18T01:05:34;97118.45;;;8.40;63.47
79465;BME280;68932;47.410;8.232;2023-05-18T01:08:02;97120.81;;;8.38;63.41
79465;BME280;68932;47.410;8.232;2023-05-18T01:10:34;97123.15;;;8.37;63.49
79465;BME280;68932;47.410;8.232;2023-05-18T01:13:07;97119.16;;;8.37;63.52
79465;BME280;68932;47.410;8.232;2023-05-18T01:15:38;97119.70;;;8.36;63.48
79465;BME280;68932;47.410;8.232;2023-05-18T01:18:13;97115.34;;;8.36;63.57
79465;BME280;68932;47.410;8.232;2023-05-18T01:20:47;97114.14;;;8.36;63.53
79465;BME280;68932;47.410;8.232;2023-05-18T01:26:21;97113.63;;;8.33;63.60
79465;BME280;68932;47.410;8.232;2023-05-18T01:28:50;97111.08;;;8.31;63.63
79465;BME280;68932;47.410;8.232;2023-05-18T01:31:19;97108.20;;;8.30;63.73
79465;BME280;68932;47.410;8.232;2023-05-18T01:33:47;97105.48;;;8.28;63.73
79465;BME280;68932;47.410;8.232;2023-05-18T01:36:15;97101.70;;;8.27;63.81
79465;BME280;68932;47.410;8.232;2023-05-18T01:38:44;97101.74;;;8.27;63.70
79465;BME280;68932;47.410;8.232;2023-05-18T01:41:17;97102.71;;;8.25;63.94
79465;BME280;68932;47.410;8.232;2023-05-18T01:43:53;97103.00;;;8.23;63.96
79465;BME280;68932;47.410;8.232;2023-05-18T01:46:30;97099.27;;;8.21;64.03
79465;BME280;68932;47.410;8.232;2023-05-18T01:49:01;97097.39;;;8.17;64.19
79465;BME280;68932;47.410;8.232;2023-05-18T01:51:35;97097.39;;;8.13;64.39
79465;BME280;68932;47.410;8.232;2023-05-18T01:54:06;97096.05;;;8.09;64.40
79465;BME280;68932;47.410;8.232;2023-05-18T01:56:35;97093.02;;;8.07;64.48
79465;BME280;68932;47.410;8.232;2023-05-18T01:59:05;97088.00;;;8.06;64.64
79465;BME280;68932;47.410;8.232;2023-05-18T02:01:34;97085.98;;;8.05;64.63
79465;BME280;68932;47.410;8.232;2023-05-18T02:04:02;97082.42;;;8.03;64.73
79465;BME280;68932;47.410;8.232;2023-05-18T02:06:32;97080.61;;;8.01;64.82
79465;BME280;68932;47.410;8.232;2023-05-18T02:09:01;97082.54;;;7.97;64.89
79465;BME280;68932;47.410;8.232;2023-05-18T02:11:29;97082.33;;;7.95;64.99
79465;BME280;68932;47.410;8.232;2023-05-18T02:13:57;97084.81;;;7.94;64.95
79465;BME280;68932;47.410;8.232;2023-05-18T02:16:25;97083.47;;;7.93;65.03
79465;BME280;68932;47.410;8.232;2023-05-18T02:18:54;97079.89;;;7.91;65.13
79465;BME280;68932;47.410;8.232;2023-05-18T02:21:22;97074.90;;;7.90;64.95
79465;BME280;68932;47.410;8.232;2023-05-18T02:23:51;97075.17;;;7.88;65.07
79465;BME280;68932;47.410;8.232;2023-05-18T02:26:19;97077.19;;;7.86;65.21
79465;BME280;68932;47.410;8.232;2023-05-18T02:28:47;97079.89;;;7.85;65.18
79465;BME280;68932;47.410;8.232;2023-05-18T02:31:15;97081.91;;;7.86;65.21
79465;BME280;68932;47.410;8.232;2023-05-18T02:33:43;97082.77;;;7.86;65.24
79465;BME280;68932;47.410;8.232;2023-05-18T02:36:12;97082.02;;;7.87;65.22
79465;BME280;68932;47.410;8.232;2023-05-18T02:38:42;97084.59;;;7.88;65.25
79465;BME280;68932;47.410;8.232;2023-05-18T02:41:11;97081.59;;;7.89;65.28
79465;BME280;68932;47.410;8.232;2023-05-18T02:43:39;97077.95;;;7.88;65.37
79465;BME280;68932;47.410;8.232;2023-05-18T02:46:07;97075.94;;;7.87;65.40
79465;BME280;68932;47.410;8.232;2023-05-18T02:48:36;97074.28;;;7.85;65.33
79465;BME280;68932;47.410;8.232;2023-05-18T02:51:05;97068.46;;;7.83;65.35
79465;BME280;68932;47.410;8.232;2023-05-18T02:53:33;97069.67;;;7.80;65.49
79465;BME280;68932;47.410;8.232;2023-05-18T02:56:01;97070.16;;;7.77;65.48
79465;BME280;68932;47.410;8.232;2023-05-18T02:58:29;97071.85;;;7.75;65.59
79465;BME280;68932;47.410;8.232;2023-05-18T03:00:58;97070.86;;;7.74;65.67
79465;BME280;68932;47.410;8.232;2023-05-18T03:03:27;97072.44;;;7.74;65.69
79465;BME280;68932;47.410;8.232;2023-05-18T03:05:55;97073.30;;;7.74;65.66
79465;BME280;68932;47.410;8.232;2023-05-18T03:08:23;97068.58;;;7.74;65.59
79465;BME280;68932;47.410;8.232;2023-05-18T03:10:52;97069.80;;;7.74;65.66
79465;BME280;68932;47.410;8.232;2023-05-18T03:13:20;97067.75;;;7.74;65.62
79465;BME280;68932;47.410;8.232;2023-05-18T03:15:48;97067.79;;;7.73;65.62
79465;BME280;68932;47.410;8.232;2023-05-18T03:18:17;97062.58;;;7.73;65.66
79465;BME280;68932;47.410;8.232;2023-05-18T03:20:45;97065.59;;;7.72;65.71
79465;BME280;68932;47.410;8.232;2023-05-18T03:23:13;97069.16;;;7.70;65.81
79465;BME280;68932;47.410;8.232;2023-05-18T03:25:41;97069.30;;;7.68;65.79
79465;BME280;68932;47.410;8.232;2023-05-18T03:28:10;97073.98;;;7.65;65.85
79465;BME280;68932;47.410;8.232;2023-05-18T03:30:38;97074.58;;;7.63;65.70
79465;BME280;68932;47.410;8.232;2023-05-18T03:33:06;97070.08;;;7.63;65.90
79465;BME280;68932;47.410;8.232;2023-05-18T03:35:34;97068.72;;;7.62;65.84
79465;BME280;68932;47.410;8.232;2023-05-18T03:38:03;97069.09;;;7.61;65.99
79465;BME280;68932;47.410;8.232;2023-05-18T03:40:31;97067.88;;;7.61;65.87
79465;BME280;68932;47.410;8.232;2023-05-18T03:42:59;97066.29;;;7.62;66.01
79465;BME280;68932;47.410;8.232;2023-05-18T03:45:28;97069.42;;;7.62;65.89
79465;BME280;68932;47.410;8.232;2023-05-18T03:47:56;97071.17;;;7.62;65.95
79465;BME280;68932;47.410;8.232;2023-05-18T03:50:24;97073.79;;;7.62;65.93
79465;BME280;68932;47.410;8.232;2023-05-18T03:52:52;97075.91;;;7.60;66.02
79465;BME280;68932;47.410;8.232;2023-05-18T03:55:21;97074.77;;;7.59;65.99
79465;BME280;68932;47.410;8.232;2023-05-18T03:57:49;97076.56;;;7.58;66.14
79465;BME280;68932;47.410;8.232;2023-05-18T04:00:19;97076.46;;;7.57;66.25
79465;BME280;68932;47.410;8.232;2023-05-18T04:02:47;97076.68;;;7.56;66.24
79465;BME280;68932;47.410;8.232;2023-05-18T04:05:16;97079.92;;;7.57;66.21
79465;BME280;68932;47.410;8.232;2023-05-18T04:07:44;97074.06;;;7.59;66.32
79465;BME280;68932;47.410;8.232;2023-05-18T04:10:13;97071.01;;;7.61;66.24
79465;BME280;68932;47.410;8.232;2023-05-18T04:12:41;97075.94;;;7.64;66.27
79465;BME280;68932;47.410;8.232;2023-05-18T04:15:11;97075.46;;;7.67;66.21
79465;BME280;68932;47.410;8.232;2023-05-18T04:17:39;97074.68;;;7.68;66.44
79465;BME280;68932;47.410;8.232;2023-05-18T04:20:10;97078.92;;;7.70;66.36
79465;BME280;68932;47.410;8.232;2023-05-18T04:22:41;97080.19;;;7.73;66.26
79465;BME280;68932;47.410;8.232;2023-05-18T04:25:09;97080.60;;;7.74;66.24
79465;BME280;68932;47.410;8.232;2023-05-18T04:27:37;97080.02;;;7.76;66.28
79465;BME280;68932;47.410;8.232;2023-05-18T04:30:08;97079.48;;;7.79;66.15
79465;BME280;68932;47.410;8.232;2023-05-18T04:32:37;97077.15;;;7.84;66.08
79465;BME280;68932;47.410;8.232;2023-05-18T04:35:07;97081.06;;;7.89;66.03
79465;BME280;68932;47.410;8.232;2023-05-18T04:37:36;97083.39;;;7.94;66.09
79465;BME280;68932;47.410;8.232;2023-05-18T04:40:05;97084.15;;;8.00;65.99
79465;BME280;68932;47.410;8.232;2023-05-18T04:42:34;97085.98;;;8.05;65.86
79465;BME280;68932;47.410;8.232;2023-05-18T04:45:03;97087.56;;;8.11;65.60
79465;BME280;68932;47.410;8.232;2023-05-18T04:47:31;97091.37;;;8.18;65.57
79465;BME280;68932;47.410;8.232;2023-05-18T04:50:00;97090.54;;;8.24;65.55
79465;BME280;68932;47.410;8.232;2023-05-18T04:52:28;97092.94;;;8.31;65.40
79465;BME280;68932;47.410;8.232;2023-05-18T04:54:56;97089.78;;;8.37;64.97
79465;BME280;68932;47.410;8.232;2023-05-18T04:57:25;97087.96;;;8.46;65.00
79465;BME280;68932;47.410;8.232;2023-05-18T04:59:53;97092.63;;;8.53;64.93
79465;BME280;68932;47.410;8.232;2023-05-18T05:02:21;97092.27;;;8.60;64.71
79465;BME280;68932;47.410;8.232;2023-05-18T05:04:49;97095.24;;;8.66;64.51
79465;BME280;68932;47.410;8.232;2023-05-18T05:07:18;97090.89;;;8.72;64.18
79465;BME280;68932;47.410;8.232;2023-05-18T05:09:46;97090.45;;;8.82;63.93
79465;BME280;68932;47.410;8.232;2023-05-18T05:12:14;97087.77;;;8.93;63.94
79465;BME280;68932;47.410;8.232;2023-05-18T05:14:42;97086.96;;;9.04;63.89
79465;BME280;68932;47.410;8.232;2023-05-18T05:17:10;97091.27;;;9.17;63.73
79465;BME280;68932;47.410;8.232;2023-05-18T05:19:39;97087.72;;;9.30;63.09
79465;BME280;68932;47.410;8.232;2023-05-18T05:22:07;97091.17;;;9.39;62.61
79465;BME280;68932;47.410;8.232;2023-05-18T05:24:35;97091.93;;;9.47;62.61
79465;BME280;68932;47.410;8.232;2023-05-18T05:27:04;97094.09;;;9.58;62.56
79465;BME280;68932;47.410;8.232;2023-05-18T05:29:33;97093.95;;;9.70;62.19
79465;BME280;68932;47.410;8.232;2023-05-18T05:32:01;97094.77;;;9.73;61.79
79465;BME280;68932;47.410;8.232;2023-05-18T05:34:29;97098.95;;;9.76;61.53
79465;BME280;68932;47.410;8.232;2023-05-18T05:36:57;97096.86;;;9.79;61.48
79465;BME280;68932;47.410;8.232;2023-05-18T05:39:26;97100.84;;;9.80;61.31
79465;BME280;68932;47.410;8.232;2023-05-18T05:41:54;97098.48;;;9.76;60.92
79465;BME280;68932;47.410;8.232;2023-05-18T05:44:22;97096.60;;;9.69;60.88
79465;BME280;68932;47.410;8.232;2023-05-18T05:46:50;97103.55;;;9.64;61.25
79465;BME280;68932;47.410;8.232;2023-05-18T05:49:19;97106.33;;;9.61;61.31
79465;BME280;68932;47.410;8.232;2023-05-18T05:51:47;97102.88;;;9.57;61.57
79465;BME280;68932;47.410;8.232;2023-05-18T05:54:16;97104.36;;;9.53;61.44
79465;BME280;68932;47.410;8.232;2023-05-18T05:56:44;97110.05;;;9.49;61.35
79465;BME280;68932;47.410;8.232;2023-05-18T05:59:12;97114.94;;;9.46;61.80
79465;BME280;68932;47.410;8.232;2023-05-18T06:01:40;97118.81;;;9.46;61.99
79465;BME280;68932;47.410;8.232;2023-05-18T06:04:08;97118.31;;;9.45;61.89
79465;BME280;68932;47.410;8.232;2023-05-18T06:06:37;97119.77;;;9.44;61.96
79465;BME280;68932;47.410;8.232;2023-05-18T06:09:05;97116.20;;;9.45;62.14
79465;BME280;68932;47.410;8.232;2023-05-18T06:11:34;97120.33;;;9.50;62.41
79465;BME280;68932;47.410;8.232;2023-05-18T06:14:02;97123.30;;;9.58;62.65
79465;BME280;68932;47.410;8.232;2023-05-18T06:16:30;97120.63;;;9.68;62.59
79465;BME280;68932;47.410;8.232;2023-05-18T06:18:58;97120.98;;;9.74;62.44
79465;BME280;68932;47.410;8.232;2023-05-18T06:21:27;97124.04;;;9.84;62.51
79465;BME280;68932;47.410;8.232;2023-05-18T06:23:55;97124.54;;;9.90;62.18
79465;BME280;68932;47.410;8.232;2023-05-18T06:26:23;97122.60;;;9.96;61.92
79465;BME280;68932;47.410;8.232;2023-05-18T06:28:52;97125.73;;;10.03;61.88
79465;BME280;68932;47.410;8.232;2023-05-18T06:31:20;97123.45;;;10.08;62.13
79465;BME280;68932;47.410;8.232;2023-05-18T06:33:48;97125.02;;;10.14;61.98
79465;BME280;68932;47.410;8.232;2023-05-18T06:36:17;97124.00;;;10.19;61.34
79465;BME280;68932;47.410;8.232;2023-05-18T06:38:45;97130.13;;;10.22;61.43
79465;BME280;68932;47.410;8.232;2023-05-18T06:41:13;97130.81;;;10.25;61.55
79465;BME280;68932;47.410;8.232;2023-05-18T06:43:42;97128.98;;;10.30;61.33
79465;BME280;68932;47.410;8.232;2023-05-18T06:46:10;97125.47;;;10.35;61.32
79465;BME280;68932;47.410;8.232;2023-05-18T06:48:45;97123.58;;;10.41;61.37
79465;BME280;68932;47.410;8.232;2023-05-18T06:51:14;97123.76;;;10.55;61.41
79465;BME280;68932;47.410;8.232;2023-05-18T06:53:42;97129.84;;;10.64;61.42
79465;BME280;68932;47.410;8.232;2023-05-18T06:56:10;97133.86;;;10.69;61.14
79465;BME280;68932;47.410;8.232;2023-05-18T06:58:40;97131.81;;;10.76;61.02
79465;BME280;68932;47.410;8.232;2023-05-18T07:01:08;97139.17;;;10.83;60.78
79465;BME280;68932;47.410;8.232;2023-05-18T07:03:37;97140.55;;;10.96;60.93
79465;BME280;68932;47.410;8.232;2023-05-18T07:06:06;97143.21;;;11.04;60.56
79465;BME280;68932;47.410;8.232;2023-05-18T07:08:34;97143.00;;;11.15;60.09
79465;BME280;68932;47.410;8.232;2023-05-18T07:11:03;97147.73;;;11.21;60.17
79465;BME280;68932;47.410;8.232;2023-05-18T07:13:31;97151.54;;;11.30;60.17
79465;BME280;68932;47.410;8.232;2023-05-18T07:15:59;97146.65;;;11.35;59.50
79465;BME280;68932;47.410;8.232;2023-05-18T07:18:28;97138.56;;;11.45;59.08
79465;BME280;68932;47.410;8.232;2023-05-18T07:20:56;97138.25;;;11.58;58.88
79465;BME280;68932;47.410;8.232;2023-05-18T07:23:24;97140.85;;;11.72;58.72
79465;BME280;68932;47.410;8.232;2023-05-18T07:25:52;97136.79;;;11.82;58.89
79465;BME280;68932;47.410;8.232;2023-05-18T07:28:21;97136.44;;;11.90;58.67
79465;BME280;68932;47.410;8.232;2023-05-18T07:30:49;97138.27;;;11.94;58.27
79465;BME280;68932;47.410;8.232;2023-05-18T07:33:17;97136.70;;;11.94;58.00
79465;BME280;68932;47.410;8.232;2023-05-18T07:35:46;97128.69;;;11.98;57.70
79465;BME280;68932;47.410;8.232;2023-05-18T07:38:15;97130.64;;;12.06;58.17
79465;BME280;68932;47.410;8.232;2023-05-18T07:40:43;97133.77;;;12.14;58.48
79465;BME280;68932;47.410;8.232;2023-05-18T07:43:11;97130.44;;;12.21;58.13
79465;BME280;68932;47.410;8.232;2023-05-18T07:45:39;97132.14;;;12.22;56.71
79465;BME280;68932;47.410;8.232;2023-05-18T07:48:08;97130.79;;;12.26;57.12
79465;BME280;68932;47.410;8.232;2023-05-18T07:50:36;97127.66;;;12.26;56.56
79465;BME280;68932;47.410;8.232;2023-05-18T07:53:04;97131.64;;;12.29;56.74
79465;BME280;68932;47.410;8.232;2023-05-18T07:55:33;97128.63;;;12.37;56.78
79465;BME280;68932;47.410;8.232;2023-05-18T07:58:01;97130.94;;;12.47;56.74
79465;BME280;68932;47.410;8.232;2023-05-18T08:00:29;97133.98;;;12.56;56.63
79465;BME280;68932;47.410;8.232;2023-05-18T08:02:57;97137.56;;;12.67;56.95
79465;BME280;68932;47.410;8.232;2023-05-18T08:05:26;97133.57;;;12.84;57.06
79465;BME280;68932;47.410;8.232;2023-05-18T08:07:54;97128.74;;;13.02;57.06
79465;BME280;68932;47.410;8.232;2023-05-18T08:10:23;97128.37;;;13.19;56.56
79465;BME280;68932;47.410;8.232;2023-05-18T08:12:51;97126.70;;;13.32;56.20
79465;BME280;68932;47.410;8.232;2023-05-18T08:15:19;97126.10;;;13.45;55.86
79465;BME280;68932;47.410;8.232;2023-05-18T08:17:48;97130.87;;;13.57;55.93
79465;BME280;68932;47.410;8.232;2023-05-18T08:20:16;97133.39;;;13.68;55.17
79465;BME280;68932;47.410;8.232;2023-05-18T08:22:44;97134.73;;;13.75;54.74
79465;BME280;68932;47.410;8.232;2023-05-18T08:25:13;97134.74;;;13.87;54.93
79465;BME280;68932;47.410;8.232;2023-05-18T08:27:41;97135.92;;;13.97;55.13
79465;BME280;68932;47.410;8.232;2023-05-18T08:30:12;97136.01;;;14.07;54.45
79465;BME280;68932;47.410;8.232;2023-05-18T08:32:40;97131.78;;;14.09;54.12
79465;BME280;68932;47.410;8.232;2023-05-18T08:35:10;97130.55;;;14.07;54.17
79465;BME280;68932;47.410;8.232;2023-05-18T08:37:38;97130.76;;;14.09;54.14
79465;BME280;68932;47.410;8.232;2023-05-18T08:40:08;97128.69;;;14.09;53.89
79465;BME280;68932;47.410;8.232;2023-05-18T08:42:42;97125.22;;;14.06;53.36
79465;BME280;68932;47.410;8.232;2023-05-18T08:45:17;97124.61;;;14.02;53.04
79465;BME280;68932;47.410;8.232;2023-05-18T08:47:50;97126.43;;;13.94;53.02
79465;BME280;68932;47.410;8.232;2023-05-18T08:50:21;97121.73;;;13.91;53.10
79465;BME280;68932;47.410;8.232;2023-05-18T08:52:54;97125.45;;;13.89;53.42
79465;BME280;68932;47.410;8.232;2023-05-18T08:55:26;97120.81;;;13.87;53.48
79465;BME280;68932;47.410;8.232;2023-05-18T08:57:56;97123.45;;;13.85;53.50
79465;BME280;68932;47.410;8.232;2023-05-18T09:00:26;97119.83;;;13.84;53.54
79465;BME280;68932;47.410;8.232;2023-05-18T09:02:55;97122.00;;;13.92;53.48
79465;BME280;68932;47.410;8.232;2023-05-18T09:05:24;97120.69;;;14.00;53.01
79465;BME280;68932;47.410;8.232;2023-05-18T09:07:52;97120.64;;;14.05;53.14
79465;BME280;68932;47.410;8.232;2023-05-18T09:10:22;97125.28;;;14.14;53.72
79465;BME280;68932;47.410;8.232;2023-05-18T09:12:51;97128.86;;;14.20;53.28
79465;BME280;68932;47.410;8.232;2023-05-18T09:15:21;97125.98;;;14.21;53.12
79465;BME280;68932;47.410;8.232;2023-05-18T09:17:49;97127.31;;;14.19;53.40
79465;BME280;68932;47.410;8.232;2023-05-18T09:20:17;97126.62;;;14.19;53.85
79465;BME280;68932;47.410;8.232;2023-05-18T09:22:46;97129.17;;;14.20;53.60
79465;BME280;68932;47.410;8.232;2023-05-18T09:25:16;97134.05;;;14.21;53.46
79465;BME280;68932;47.410;8.232;2023-05-18T09:27:45;97134.09;;;14.23;53.61
79465;BME280;68932;47.410;8.232;2023-05-18T09:30:15;97137.52;;;14.24;53.68
79465;BME280;68932;47.410;8.232;2023-05-18T09:32:46;97141.65;;;14.19;53.05
79465;BME280;68932;47.410;8.232;2023-05-18T09:35:15;97141.20;;;14.08;53.13
79465;BME280;68932;47.410;8.232;2023-05-18T09:37:44;97142.73;;;14.00;53.30
79465;BME280;68932;47.410;8.232;2023-05-18T09:40:12;97145.47;;;13.94;53.28
79465;BME280;68932;47.410;8.232;2023-05-18T09:42:42;97146.60;;;13.88;53.93
79465;BME280;68932;47.410;8.232;2023-05-18T09:45:18;97149.21;;;13.84;54.03
79465;BME280;68932;47.410;8.232;2023-05-18T09:47:50;97147.55;;;13.78;54.04
79465;BME280;68932;47.410;8.232;2023-05-18T09:50:21;97147.23;;;13.71;54.14
79465;BME280;68932;47.410;8.232;2023-05-18T09:52:50;97144.48;;;13.63;53.86
79465;BME280;68932;47.410;8.232;2023-05-18T09:55:19;97150.17;;;13.57;54.00
79465;BME280;68932;47.410;8.232;2023-05-18T09:57:51;97149.41;;;13.51;54.36
79465;BME280;68932;47.410;8.232;2023-05-18T10:00:20;97149.92;;;13.47;54.61
79465;BME280;68932;47.410;8.232;2023-05-18T10:02:50;97148.31;;;13.45;54.60
79465;BME280;68932;47.410;8.232;2023-05-18T10:05:22;97139.83;;;13.45;54.79
79465;BME280;68932;47.410;8.232;2023-05-18T10:07:49;97140.33;;;13.50;55.04
79465;BME280;68932;47.410;8.232;2023-05-18T10:10:20;97143.41;;;13.61;55.04
79465;BME280;68932;47.410;8.232;2023-05-18T10:12:51;97143.00;;;13.71;54.05
79465;BME280;68932;47.410;8.232;2023-05-18T10:15:21;97141.80;;;13.80;54.12
79465;BME280;68932;47.410;8.232;2023-05-18T10:17:54;97138.89;;;13.90;54.38
79465;BME280;68932;47.410;8.232;2023-05-18T10:20:23;97136.89;;;14.05;54.87
79465;BME280;68932;47.410;8.232;2023-05-18T10:22:53;97136.00;;;14.19;54.75
79465;BME280;68932;47.410;8.232;2023-05-18T10:25:23;97138.58;;;14.28;54.15
79465;BME280;68932;47.410;8.232;2023-05-18T10:28:03;97139.21;;;14.34;53.84
79465;BME280;68932;47.410;8.232;2023-05-18T10:30:34;97141.46;;;14.39;53.75
79465;BME280;68932;47.410;8.232;2023-05-18T10:33:03;97146.29;;;14.43;53.38
79465;BME280;68932;47.410;8.232;2023-05-18T10:35:32;97147.81;;;14.44;53.16
79465;BME280;68932;47.410;8.232;2023-05-18T10:38:02;97146.88;;;14.37;53.30
79465;BME280;68932;47.410;8.232;2023-05-18T10:40:33;97144.88;;;14.35;53.09
79465;BME280;68932;47.410;8.232;2023-05-18T10:43:04;97139.71;;;14.34;52.98
79465;BME280;68932;47.410;8.232;2023-05-18T10:45:35;97141.49;;;14.34;53.28
79465;BME280;68932;47.410;8.232;2023-05-18T10:48:05;97136.61;;;14.35;53.19
79465;BME280;68932;47.410;8.232;2023-05-18T10:50:38;97135.52;;;14.38;53.71
79465;BME280;68932;47.410;8.232;2023-05-18T10:53:08;97137.89;;;14.42;53.43
79465;BME280;68932;47.410;8.232;2023-05-18T10:55:37;97140.23;;;14.46;53.27
79465;BME280;68932;47.410;8.232;2023-05-18T10:58:09;97137.94;;;14.50;53.27
79465;BME280;68932;47.410;8.232;2023-05-18T11:00:40;97140.24;;;14.54;53.21
79465;BME280;68932;47.410;8.232;2023-05-18T11:03:12;97137.17;;;14.55;53.14
79465;BME280;68932;47.410;8.232;2023-05-18T11:05:41;97141.23;;;14.58;52.81
79465;BME280;68932;47.410;8.232;2023-05-18T11:08:09;97140.63;;;14.61;52.58
79465;BME280;68932;47.410;8.232;2023-05-18T11:10:41;97142.90;;;14.66;52.66
79465;BME280;68932;47.410;8.232;2023-05-18T11:13:11;97139.77;;;14.70;52.82
79465;BME280;68932;47.410;8.232;2023-05-18T11:16:05;97139.80;;;14.76;53.16
79465;BME280;68932;47.410;8.232;2023-05-18T11:18:41;97138.45;;;14.87;53.03
79465;BME280;68932;47.410;8.232;2023-05-18T11:21:22;97141.35;;;14.96;52.82
79465;BME280;68932;47.410;8.232;2023-05-18T11:24:14;97144.80;;;15.06;52.00
79465;BME280;68932;47.410;8.232;2023-05-18T11:26:43;97140.66;;;15.07;51.23
79465;BME280;68932;47.410;8.232;2023-05-18T11:29:20;97139.20;;;15.01;51.25
79465;BME280;68932;47.410;8.232;2023-05-18T11:31:50;97137.41;;;14.95;51.58
79465;BME280;68932;47.410;8.232;2023-05-18T11:34:41;97139.59;;;14.90;51.98
79465;BME280;68932;47.410;8.232;2023-05-18T11:37:10;97142.98;;;14.87;52.41
79465;BME280;68932;47.410;8.232;2023-05-18T11:39:39;97145.53;;;14.88;52.74
79465;BME280;68932;47.410;8.232;2023-05-18T11:42:09;97140.15;;;14.89;52.55
79465;BME280;68932;47.410;8.232;2023-05-18T11:44:38;97140.05;;;14.88;52.62
79465;BME280;68932;47.410;8.232;2023-05-18T11:47:09;97136.38;;;14.86;52.79
79465;BME280;68932;47.410;8.232;2023-05-18T11:49:45;97139.89;;;14.86;53.20
79465;BME280;68932;47.410;8.232;2023-05-18T11:52:22;97138.75;;;14.87;53.31
79465;BME280;68932;47.410;8.232;2023-05-18T11:54:52;97136.70;;;14.86;52.74
79465;BME280;68932;47.410;8.232;2023-05-18T11:57:24;97139.92;;;14.84;52.77
79465;BME280;68932;47.410;8.232;2023-05-18T11:59:56;97140.98;;;14.81;52.24
79465;BME280;68932;47.410;8.232;2023-05-18T12:02:27;97138.58;;;14.81;52.16
79465;BME280;68932;47.410;8.232;2023-05-18T12:04:59;97134.36;;;14.85;52.03
79465;BME280;68932;47.410;8.232;2023-05-18T12:07:29;97132.42;;;14.87;51.81
79465;BME280;68932;47.410;8.232;2023-05-18T12:10:00;97125.81;;;14.94;52.20
79465;BME280;68932;47.410;8.232;2023-05-18T12:12:29;97125.66;;;15.03;51.74
79465;BME280;68932;47.410;8.232;2023-05-18T12:14:58;97130.38;;;15.08;51.79
79465;BME280;68932;47.410;8.232;2023-05-18T12:17:38;97130.50;;;15.12;51.65
79465;BME280;68932;47.410;8.232;2023-05-18T12:20:08;97130.42;;;15.13;50.95
79465;BME280;68932;47.410;8.232;2023-05-18T12:22:37;97129.59;;;15.13;51.12
79465;BME280;68932;47.410;8.232;2023-05-18T12:25:07;97128.98;;;15.14;51.71
79465;BME280;68932;47.410;8.232;2023-05-18T12:27:39;97120.38;;;15.17;51.29
79465;BME280;68932;47.410;8.232;2023-05-18T12:30:10;97121.92;;;15.20;51.26
79465;BME280;68932;47.410;8.232;2023-05-18T12:32:38;97122.55;;;15.22;50.45
79465;BME280;68932;47.410;8.232;2023-05-18T12:35:08;97115.84;;;15.19;49.70
79465;BME280;68932;47.410;8.232;2023-05-18T12:37:41;97116.10;;;15.21;50.47
79465;BME280;68932;47.410;8.232;2023-05-18T12:40:12;97116.86;;;15.22;50.32
79465;BME280;68932;47.410;8.232;2023-05-18T12:42:40;97116.33;;;15.20;50.40
79465;BME280;68932;47.410;8.232;2023-05-18T12:45:18;97117.09;;;15.19;50.66
79465;BME280;68932;47.410;8.232;2023-05-18T12:47:47;97117.67;;;15.18;50.75
79465;BME280;68932;47.410;8.232;2023-05-18T12:50:15;97116.61;;;15.18;50.26
79465;BME280;68932;47.410;8.232;2023-05-18T12:52:44;97110.57;;;15.16;49.73
79465;BME280;68932;47.410;8.232;2023-05-18T12:55:18;97109.75;;;15.14;50.12
79465;BME280;68932;47.410;8.232;2023-05-18T12:57:46;97109.21;;;15.13;50.01
79465;BME280;68932;47.410;8.232;2023-05-18T13:00:25;97109.23;;;15.11;49.81
79465;BME280;68932;47.410;8.232;2023-05-18T13:02:53;97108.55;;;15.09;49.90
79465;BME280;68932;47.410;8.232;2023-05-18T13:05:31;97107.21;;;15.08;49.95
79465;BME280;68932;47.410;8.232;2023-05-18T13:08:00;97106.80;;;15.09;49.89
79465;BME280;68932;47.410;8.232;2023-05-18T13:10:30;97106.95;;;15.09;50.16
79465;BME280;68932;47.410;8.232;2023-05-18T13:12:59;97110.71;;;15.10;50.36
79465;BME280;68932;47.410;8.232;2023-05-18T13:15:32;97105.56;;;15.11;50.57
79465;BME280;68932;47.410;8.232;2023-05-18T13:18:03;97108.80;;;15.12;50.80
79465;BME280;68932;47.410;8.232;2023-05-18T13:20:34;97108.72;;;15.11;50.40
79465;BME280;68932;47.410;8.232;2023-05-18T13:23:05;97105.64;;;15.10;51.03
79465;BME280;68932;47.410;8.232;2023-05-18T13:25:34;97107.41;;;15.08;51.00